sensor_id;sensor_type;location;lat;lon;timestamp;temperature;humidity
23114;DHT22;11726;50.122;8.832;2024-03-22T00:01:16;9.10;99.90
23114;DHT22;11726;50.122;8.832;2024-03-22T00:03:41;9.20;99.90
23114;DHT22;11726;50.122;8.832;2024-03-22T00:06:07;9.20;99.90
23114;DHT22;11726;50.122;8.832;2024-03-22T00:08:33;9.20;99.90
23114;DHT22;11726;50.122;8.832;2024-03-22T00:10:59;9.20;99.90
23114;DHT22;11726;50.122;8.832;2024-03-22T00:13:24;9.10;99.90
23114;DHT22;11726;50.122;8.832;2024-03-22T00:15:50;9.10;99.90
23114;DHT22;11726;50.122;8.832;2024-03-22T00:18:16;8.90;99.90
23114;DHT22;11726;50.122;8.832;2024-03-22T00:20:42;8.90;99.90
23114;DHT22;11726;50.122;8.832;2024-03-22T00:23:07;8.90;99.90
23114;DHT22;11726;50.122;8.832;2024-03-22T00:25:33;8.90;99.90
23114;DHT22;11726;50.122;8.832;2024-03-22T00:27:59;9.00;99.90
23114;DHT22;11726;50.122;8.832;2024-03-22T00:30:24;8.90;99.90
23114;DHT22;11726;50.122;8.832;2024-03-22T00:32:50;8.90;99.90
23114;DHT22;11726;50.122;8.832;2024-03-22T00:35:16;8.90;99.90
23114;DHT22;11726;50.122;8.832;2024-03-22T00:37:42;8.80;99.90
23114;DHT22;11726;50.122;8.832;2024-03-22T00:40:08;8.80;99.90
23114;DHT22;11726;50.122;8.832;2024-03-22T00:42:33;8.80;99.90
23114;DHT22;11726;50.122;8.832;2024-03-22T00:44:59;8.80;99.90
23114;DHT22;11726;50.122;8.832;2024-03-22T00:47:25;8.70;99.90
23114;DHT22;11726;50.122;8.832;2024-03-22T00:49:50;8.70;99.90
23114;DHT22;11726;50.122;8.832;2024-03-22T00:52:16;8.70;99.90
23114;DHT22;11726;50.122;8.832;2024-03-22T00:54:42;8.70;99.90
23114;DHT22;11726;50.122;8.832;2024-03-22T00:57:08;8.60;99.90
23114;DHT22;11726;50.122;8.832;2024-03-22T00:59:34;8.50;99.90
23114;DHT22;11726;50.122;8.832;2024-03-22T01:02:00;8.60;99.90
23114;DHT22;11726;50.122;8.832;2024-03-22T01:04:26;8.60;99.90
23114;DHT22;11726;50.122;8.832;2024-03-22T01:06:51;8.40;99.90
23114;DHT22;11726;50.122;8.832;2024-03-22T01:09:17;8.40;99.90
23114;DHT22;11726;50.122;8.832;2024-03-22T01:11:43;8.40;99.90
23114;DHT22;11726;50.122;8.832;2024-03-22T01:14:08;8.40;99.90
23114;DHT22;11726;50.122;8.832;2024-03-22T01:16:34;8.40;99.90
23114;DHT22;11726;50.122;8.832;2024-03-22T01:19:00;8.30;99.90
23114;DHT22;11726;50.122;8.832;2024-03-22T01:21:25;8.30;99.90
23114;DHT22;11726;50.122;8.832;2024-03-22T01:23:52;8.30;99.90
23114;DHT22;11726;50.122;8.832;2024-03-22T01:26:18;8.20;99.90
23114;DHT22;11726;50.122;8.832;2024-03-22T01:28:44;8.40;99.90
23114;DHT22;11726;50.122;8.832;2024-03-22T01:31:09;8.40;99.90
23114;DHT22;11726;50.122;8.832;2024-03-22T01:33:35;8.40;99.90
23114;DHT22;11726;50.122;8.832;2024-03-22T01:36:01;8.40;99.90
23114;DHT22;11726;50.122;8.832;2024-03-22T01:38:26;8.40;99.90
23114;DHT22;11726;50.122;8.832;2024-03-22T01:40:53;8.30;99.90
23114;DHT22;11726;50.122;8.832;2024-03-22T01:43:19;8.30;99.90
23114;DHT22;11726;50.122;8.832;2024-03-22T01:45:44;8.30;99.90
23114;DHT22;11726;50.122;8.832;2024-03-22T01:48:11;8.30;99.90
23114;DHT22;11726;50.122;8.832;2024-03-22T01:50:37;8.30;99.90
23114;DHT22;11726;50.122;8.832;2024-03-22T01:53:03;8.30;99.90
23114;DHT22;11726;50.122;8.832;2024-03-22T01:55:30;8.30;99.90
23114;DHT22;11726;50.122;8.832;2024-03-22T01:57:56;8.20;99.90
23114;DHT22;11726;50.122;8.832;2024-03-22T02:00:22;8.10;99.90
23114;DHT22;11726;50.122;8.832;2024-03-22T02:02:48;8.10;99.90
23114;DHT22;11726;50.122;8.832;2024-03-22T02:05:15;8.00;99.90
23114;DHT22;11726;50.122;8.832;2024-03-22T02:07:42;7.90;99.90
23114;DHT22;11726;50.122;8.832;2024-03-22T02:10:09;7.80;99.90
23114;DHT22;11726;50.122;8.832;2024-03-22T02:12:37;7.80;99.90
23114;DHT22;11726;50.122;8.832;2024-03-22T02:15:03;7.70;99.90
23114;DHT22;11726;50.122;8.832;2024-03-22T02:17:29;7.50;99.90
23114;DHT22;11726;50.122;8.832;2024-03-22T02:19:55;7.40;99.90
23114;DHT22;11726;50.122;8.832;2024-03-22T02:22:20;7.40;99.90
23114;DHT22;11726;50.122;8.832;2024-03-22T02:24:46;7.50;99.90
23114;DHT22;11726;50.122;8.832;2024-03-22T02:27:12;7.40;99.90
23114;DHT22;11726;50.122;8.832;2024-03-22T02:29:38;7.30;99.90
23114;DHT22;11726;50.122;8.832;2024-03-22T02:32:04;7.30;99.90
23114;DHT22;11726;50.122;8.832;2024-03-22T02:34:29;7.30;99.90
23114;DHT22;11726;50.122;8.832;2024-03-22T02:36:55;7.30;99.90
23114;DHT22;11726;50.122;8.832;2024-03-22T02:39:21;7.40;99.90
23114;DHT22;11726;50.122;8.832;2024-03-22T02:41:46;7.40;99.90
23114;DHT22;11726;50.122;8.832;2024-03-22T02:44:12;7.40;99.90
23114;DHT22;11726;50.122;8.832;2024-03-22T02:46:38;7.40;99.90
23114;DHT22;11726;50.122;8.832;2024-03-22T02:49:04;7.20;99.90
23114;DHT22;11726;50.122;8.832;2024-03-22T02:51:29;7.20;99.90
23114;DHT22;11726;50.122;8.832;2024-03-22T02:53:55;7.20;99.90
23114;DHT22;11726;50.122;8.832;2024-03-22T02:56:21;7.20;99.90
23114;DHT22;11726;50.122;8.832;2024-03-22T02:58:46;7.20;99.90
23114;DHT22;11726;50.122;8.832;2024-03-22T03:01:14;7.20;99.90
23114;DHT22;11726;50.122;8.832;2024-03-22T03:03:39;7.20;99.90
23114;DHT22;11726;50.122;8.832;2024-03-22T03:06:05;7.20;99.90
23114;DHT22;11726;50.122;8.832;2024-03-22T03:08:31;7.10;99.90
23114;DHT22;11726;50.122;8.832;2024-03-22T03:10:57;7.00;99.90
23114;DHT22;11726;50.122;8.832;2024-03-22T03:13:22;7.10;99.90
23114;DHT22;11726;50.122;8.832;2024-03-22T03:15:49;7.10;99.90
23114;DHT22;11726;50.122;8.832;2024-03-22T03:18:15;7.10;99.90
23114;DHT22;11726;50.122;8.832;2024-03-22T03:20:40;7.00;99.90
23114;DHT22;11726;50.122;8.832;2024-03-22T03:23:06;7.00;99.90
23114;DHT22;11726;50.122;8.832;2024-03-22T03:25:32;6.90;99.90
23114;DHT22;11726;50.122;8.832;2024-03-22T03:27:57;6.90;99.90
23114;DHT22;11726;50.122;8.832;2024-03-22T03:30:23;6.90;99.90
23114;DHT22;11726;50.122;8.832;2024-03-22T03:32:49;6.90;99.90
23114;DHT22;11726;50.122;8.832;2024-03-22T03:35:14;6.90;99.90
23114;DHT22;11726;50.122;8.832;2024-03-22T03:37:40;6.90;99.90
23114;DHT22;11726;50.122;8.832;2024-03-22T03:40:07;6.80;99.90
23114;DHT22;11726;50.122;8.832;2024-03-22T03:42:33;6.90;99.90
23114;DHT22;11726;50.122;8.832;2024-03-22T03:44:58;6.90;99.90
23114;DHT22;11726;50.122;8.832;2024-03-22T03:47:24;6.90;99.90
23114;DHT22;11726;50.122;8.832;2024-03-22T03:49:50;6.90;99.90
23114;DHT22;11726;50.122;8.832;2024-03-22T03:52:15;6.90;99.90
23114;DHT22;11726;50.122;8.832;2024-03-22T03:54:41;6.90;99.90
23114;DHT22;11726;50.122;8.832;2024-03-22T03:57:07;6.80;99.90
23114;DHT22;11726;50.122;8.832;2024-03-22T03:59:33;6.70;99.90
23114;DHT22;11726;50.122;8.832;2024-03-22T04:01:58;6.60;99.90
23114;DHT22;11726;50.122;8.832;2024-03-22T04:04:24;6.60;99.90
23114;DHT22;11726;50.122;8.832;2024-03-22T04:06:50;6.70;99.90
23114;DHT22;11726;50.122;8.832;2024-03-22T04:09:15;6.70;99.90
23114;DHT22;11726;50.122;8.832;2024-03-22T04:11:41;6.80;99.90
23114;DHT22;11726;50.122;8.832;2024-03-22T04:14:07;6.80;99.90
23114;DHT22;11726;50.122;8.832;2024-03-22T04:16:33;6.80;99.90
23114;DHT22;11726;50.122;8.832;2024-03-22T04:18:58;6.80;99.90
23114;DHT22;11726;50.122;8.832;2024-03-22T04:21:24;6.90;99.90
23114;DHT22;11726;50.122;8.832;2024-03-22T04:23:50;6.90;99.90
23114;DHT22;11726;50.122;8.832;2024-03-22T04:26:16;6.90;99.90
23114;DHT22;11726;50.122;8.832;2024-03-22T04:28:41;7.00;99.90
23114;DHT22;11726;50.122;8.832;2024-03-22T04:31:08;7.10;99.90
23114;DHT22;11726;50.122;8.832;2024-03-22T04:33:35;7.20;99.90
23114;DHT22;11726;50.122;8.832;2024-03-22T04:36:01;7.10;99.90
23114;DHT22;11726;50.122;8.832;2024-03-22T04:38:29;7.10;99.90
23114;DHT22;11726;50.122;8.832;2024-03-22T04:40:55;7.10;99.90
23114;DHT22;11726;50.122;8.832;2024-03-22T04:43:23;7.20;99.90
23114;DHT22;11726;50.122;8.832;2024-03-22T04:45:50;7.30;99.90
23114;DHT22;11726;50.122;8.832;2024-03-22T04:48:20;7.30;99.90
23114;DHT22;11726;50.122;8.832;2024-03-22T04:50:47;7.30;99.90
23114;DHT22;11726;50.122;8.832;2024-03-22T04:53:24;7.30;99.90
23114;DHT22;11726;50.122;8.832;2024-03-22T04:55:50;7.20;99.90
23114;DHT22;11726;50.122;8.832;2024-03-22T04:58:21;7.30;99.90
23114;DHT22;11726;50.122;8.832;2024-03-22T05:00:48;7.30;99.90
23114;DHT22;11726;50.122;8.832;2024-03-22T05:03:14;7.30;99.90
23114;DHT22;11726;50.122;8.832;2024-03-22T05:05:41;7.20;99.90
23114;DHT22;11726;50.122;8.832;2024-03-22T05:08:07;7.00;99.90
23114;DHT22;11726;50.122;8.832;2024-03-22T05:10:33;7.00;99.90
23114;DHT22;11726;50.122;8.832;2024-03-22T05:12:59;7.10;99.90
23114;DHT22;11726;50.122;8.832;2024-03-22T05:15:26;7.10;99.90
23114;DHT22;11726;50.122;8.832;2024-03-22T05:17:52;7.20;99.90
23114;DHT22;11726;50.122;8.832;2024-03-22T05:20:19;7.20;99.90
23114;DHT22;11726;50.122;8.832;2024-03-22T05:22:45;7.20;99.90
23114;DHT22;11726;50.122;8.832;2024-03-22T05:25:11;7.00;99.90
23114;DHT22;11726;50.122;8.832;2024-03-22T05:27:38;7.00;99.90
23114;DHT22;11726;50.122;8.832;2024-03-22T05:30:04;7.10;99.90
23114;DHT22;11726;50.122;8.832;2024-03-22T05:32:30;7.20;99.90
23114;DHT22;11726;50.122;8.832;2024-03-22T05:34:55;7.30;99.90
23114;DHT22;11726;50.122;8.832;2024-03-22T05:37:22;7.20;99.90
23114;DHT22;11726;50.122;8.832;2024-03-22T05:39:48;7.20;99.90
23114;DHT22;11726;50.122;8.832;2024-03-22T05:42:14;7.20;99.90
23114;DHT22;11726;50.122;8.832;2024-03-22T05:44:40;7.30;99.90
23114;DHT22;11726;50.122;8.832;2024-03-22T05:47:05;7.30;99.90
23114;DHT22;11726;50.122;8.832;2024-03-22T05:49:31;7.30;99.90
23114;DHT22;11726;50.122;8.832;2024-03-22T05:51:57;7.30;99.90
23114;DHT22;11726;50.122;8.832;2024-03-22T05:54:23;7.40;99.90
23114;DHT22;11726;50.122;8.832;2024-03-22T05:56:48;7.40;99.90
23114;DHT22;11726;50.122;8.832;2024-03-22T05:59:14;7.40;99.90
23114;DHT22;11726;50.122;8.832;2024-03-22T06:01:40;7.40;99.90
23114;DHT22;11726;50.122;8.832;2024-03-22T06:04:06;7.40;99.90
23114;DHT22;11726;50.122;8.832;2024-03-22T06:06:33;7.40;99.90
23114;DHT22;11726;50.122;8.832;2024-03-22T06:08:59;7.50;99.90
23114;DHT22;11726;50.122;8.832;2024-03-22T06:11:28;7.50;99.90
23114;DHT22;11726;50.122;8.832;2024-03-22T06:13:54;7.50;99.90
23114;DHT22;11726;50.122;8.832;2024-03-22T06:16:20;7.40;99.90
23114;DHT22;11726;50.122;8.832;2024-03-22T06:18:45;7.50;99.90
23114;DHT22;11726;50.122;8.832;2024-03-22T06:21:11;7.60;99.90
23114;DHT22;11726;50.122;8.832;2024-03-22T06:23:40;7.70;99.90
23114;DHT22;11726;50.122;8.832;2024-03-22T06:26:07;7.80;99.90
23114;DHT22;11726;50.122;8.832;2024-03-22T06:28:32;7.90;99.90
23114;DHT22;11726;50.122;8.832;2024-03-22T06:30:58;8.00;99.90
23114;DHT22;11726;50.122;8.832;2024-03-22T06:33:24;8.20;99.90
23114;DHT22;11726;50.122;8.832;2024-03-22T06:35:50;8.30;99.90
23114;DHT22;11726;50.122;8.832;2024-03-22T06:38:16;8.30;99.90
23114;DHT22;11726;50.122;8.832;2024-03-22T06:40:41;8.40;99.90
23114;DHT22;11726;50.122;8.832;2024-03-22T06:43:07;8.60;99.90
23114;DHT22;11726;50.122;8.832;2024-03-22T06:45:34;8.70;99.90
23114;DHT22;11726;50.122;8.832;2024-03-22T06:48:00;8.70;99.90
23114;DHT22;11726;50.122;8.832;2024-03-22T06:50:25;8.80;99.90
23114;DHT22;11726;50.122;8.832;2024-03-22T06:52:54;8.90;99.90
23114;DHT22;11726;50.122;8.832;2024-03-22T06:55:20;8.80;99.90
23114;DHT22;11726;50.122;8.832;2024-03-22T06:57:48;8.90;99.90
23114;DHT22;11726;50.122;8.832;2024-03-22T07:00:14;8.80;99.90
23114;DHT22;11726;50.122;8.832;2024-03-22T07:02:40;8.90;99.90
23114;DHT22;11726;50.122;8.832;2024-03-22T07:05:07;8.80;99.90
23114;DHT22;11726;50.122;8.832;2024-03-22T07:07:33;8.90;99.90
23114;DHT22;11726;50.122;8.832;2024-03-22T07:09:59;8.90;99.90
23114;DHT22;11726;50.122;8.832;2024-03-22T07:12:25;9.00;99.90
23114;DHT22;11726;50.122;8.832;2024-03-22T07:14:51;9.10;99.90
23114;DHT22;11726;50.122;8.832;2024-03-22T07:17:16;9.20;99.90
23114;DHT22;11726;50.122;8.832;2024-03-22T07:19:42;9.30;99.90
23114;DHT22;11726;50.122;8.832;2024-03-22T07:22:08;9.30;99.90
23114;DHT22;11726;50.122;8.832;2024-03-22T07:24:34;9.40;99.90
23114;DHT22;11726;50.122;8.832;2024-03-22T07:27:00;9.40;99.90
23114;DHT22;11726;50.122;8.832;2024-03-22T07:29:26;9.40;99.90
23114;DHT22;11726;50.122;8.832;2024-03-22T07:31:51;9.50;99.90
23114;DHT22;11726;50.122;8.832;2024-03-22T07:34:17;9.50;99.90
23114;DHT22;11726;50.122;8.832;2024-03-22T07:36:44;9.60;99.90
23114;DHT22;11726;50.122;8.832;2024-03-22T07:39:10;9.70;99.90
23114;DHT22;11726;50.122;8.832;2024-03-22T07:41:35;9.70;99.90
23114;DHT22;11726;50.122;8.832;2024-03-22T07:44:02;9.80;99.90
23114;DHT22;11726;50.122;8.832;2024-03-22T07:46:28;9.90;99.90
23114;DHT22;11726;50.122;8.832;2024-03-22T07:48:54;10.00;99.90
23114;DHT22;11726;50.122;8.832;2024-03-22T07:51:20;10.00;99.90
23114;DHT22;11726;50.122;8.832;2024-03-22T07:53:46;10.10;99.90
23114;DHT22;11726;50.122;8.832;2024-03-22T07:56:12;10.20;99.90
23114;DHT22;11726;50.122;8.832;2024-03-22T07:58:38;10.30;99.90
23114;DHT22;11726;50.122;8.832;2024-03-22T08:01:04;10.30;99.90
23114;DHT22;11726;50.122;8.832;2024-03-22T08:03:30;10.40;99.90
23114;DHT22;11726;50.122;8.832;2024-03-22T08:05:56;10.40;99.90
23114;DHT22;11726;50.122;8.832;2024-03-22T08:08:22;10.50;99.90
23114;DHT22;11726;50.122;8.832;2024-03-22T08:10:48;10.60;99.90
23114;DHT22;11726;50.122;8.832;2024-03-22T08:13:13;10.60;99.90
23114;DHT22;11726;50.122;8.832;2024-03-22T08:15:39;10.70;99.90
23114;DHT22;11726;50.122;8.832;2024-03-22T08:18:05;10.70;99.90
23114;DHT22;11726;50.122;8.832;2024-03-22T08:20:31;10.70;99.90
23114;DHT22;11726;50.122;8.832;2024-03-22T08:22:59;10.70;99.90
23114;DHT22;11726;50.122;8.832;2024-03-22T08:25:25;10.80;99.90
23114;DHT22;11726;50.122;8.832;2024-03-22T08:27:51;10.90;99.90
23114;DHT22;11726;50.122;8.832;2024-03-22T08:30:21;10.80;99.90
23114;DHT22;11726;50.122;8.832;2024-03-22T08:32:47;10.90;99.90
23114;DHT22;11726;50.122;8.832;2024-03-22T08:35:13;10.90;99.90
23114;DHT22;11726;50.122;8.832;2024-03-22T08:37:39;11.00;99.90
23114;DHT22;11726;50.122;8.832;2024-03-22T08:40:05;11.00;99.90
23114;DHT22;11726;50.122;8.832;2024-03-22T08:42:32;11.10;99.90
23114;DHT22;11726;50.122;8.832;2024-03-22T08:44:58;11.10;99.90
23114;DHT22;11726;50.122;8.832;2024-03-22T08:47:23;11.20;99.90
23114;DHT22;11726;50.122;8.832;2024-03-22T08:49:49;11.20;99.90
23114;DHT22;11726;50.122;8.832;2024-03-22T08:52:15;11.20;99.90
23114;DHT22;11726;50.122;8.832;2024-03-22T08:54:41;11.30;99.90
23114;DHT22;11726;50.122;8.832;2024-03-22T08:57:07;11.30;99.90
23114;DHT22;11726;50.122;8.832;2024-03-22T08:59:32;11.40;99.90
23114;DHT22;11726;50.122;8.832;2024-03-22T09:01:58;11.50;99.90
23114;DHT22;11726;50.122;8.832;2024-03-22T09:04:25;11.60;99.90
23114;DHT22;11726;50.122;8.832;2024-03-22T09:06:51;11.70;99.90
23114;DHT22;11726;50.122;8.832;2024-03-22T09:09:16;11.90;99.90
23114;DHT22;11726;50.122;8.832;2024-03-22T09:11:43;12.00;99.90
23114;DHT22;11726;50.122;8.832;2024-03-22T09:14:08;12.10;99.90
23114;DHT22;11726;50.122;8.832;2024-03-22T09:16:34;12.20;99.90
23114;DHT22;11726;50.122;8.832;2024-03-22T09:19:00;12.30;99.90
23114;DHT22;11726;50.122;8.832;2024-03-22T09:21:26;12.60;99.90
23114;DHT22;11726;50.122;8.832;2024-03-22T09:23:53;12.80;99.90
23114;DHT22;11726;50.122;8.832;2024-03-22T09:26:18;12.90;99.90
23114;DHT22;11726;50.122;8.832;2024-03-22T09:28:48;12.90;99.90
23114;DHT22;11726;50.122;8.832;2024-03-22T09:31:16;13.10;99.90
23114;DHT22;11726;50.122;8.832;2024-03-22T09:33:42;13.20;99.90
23114;DHT22;11726;50.122;8.832;2024-03-22T09:36:08;13.20;99.90
23114;DHT22;11726;50.122;8.832;2024-03-22T09:38:34;13.30;99.90
23114;DHT22;11726;50.122;8.832;2024-03-22T09:41:00;13.50;99.90
23114;DHT22;11726;50.122;8.832;2024-03-22T09:43:27;13.60;99.90
23114;DHT22;11726;50.122;8.832;2024-03-22T09:45:54;13.70;99.90
23114;DHT22;11726;50.122;8.832;2024-03-22T09:48:20;13.90;99.90
23114;DHT22;11726;50.122;8.832;2024-03-22T09:50:46;14.00;99.90
23114;DHT22;11726;50.122;8.832;2024-03-22T09:53:18;14.20;99.90
23114;DHT22;11726;50.122;8.832;2024-03-22T09:55:45;14.10;99.90
23114;DHT22;11726;50.122;8.832;2024-03-22T09:58:12;14.10;99.90
23114;DHT22;11726;50.122;8.832;2024-03-22T10:00:38;14.20;99.90
23114;DHT22;11726;50.122;8.832;2024-03-22T10:03:04;14.20;99.90
23114;DHT22;11726;50.122;8.832;2024-03-22T10:05:31;14.40;99.90
23114;DHT22;11726;50.122;8.832;2024-03-22T10:07:57;14.60;99.90
23114;DHT22;11726;50.122;8.832;2024-03-22T10:10:23;14.60;99.90
23114;DHT22;11726;50.122;8.832;2024-03-22T10:12:49;14.70;99.90
23114;DHT22;11726;50.122;8.832;2024-03-22T10:15:15;14.80;99.90
23114;DHT22;11726;50.122;8.832;2024-03-22T10:17:41;14.80;99.90
23114;DHT22;11726;50.122;8.832;2024-03-22T10:20:07;14.70;99.90
23114;DHT22;11726;50.122;8.832;2024-03-22T10:22:54;14.90;99.90
23114;DHT22;11726;50.122;8.832;2024-03-22T10:25:21;15.00;99.90
23114;DHT22;11726;50.122;8.832;2024-03-22T10:27:48;15.00;99.90
23114;DHT22;11726;50.122;8.832;2024-03-22T10:30:16;15.00;99.90
23114;DHT22;11726;50.122;8.832;2024-03-22T10:32:42;15.00;99.90
23114;DHT22;11726;50.122;8.832;2024-03-22T10:35:11;15.00;99.90
23114;DHT22;11726;50.122;8.832;2024-03-22T10:37:39;15.20;99.90
23114;DHT22;11726;50.122;8.832;2024-03-22T10:40:05;15.30;99.90
23114;DHT22;11726;50.122;8.832;2024-03-22T10:42:36;15.20;99.90
23114;DHT22;11726;50.122;8.832;2024-03-22T10:45:07;15.50;99.90
23114;DHT22;11726;50.122;8.832;2024-03-22T10:47:35;15.30;99.90
23114;DHT22;11726;50.122;8.832;2024-03-22T10:50:07;15.50;99.90
23114;DHT22;11726;50.122;8.832;2024-03-22T10:55:36;15.60;99.90
23114;DHT22;11726;50.122;8.832;2024-03-22T10:58:03;15.50;99.90
23114;DHT22;11726;50.122;8.832;2024-03-22T11:00:34;15.70;99.90
23114;DHT22;11726;50.122;8.832;2024-03-22T11:03:04;15.90;99.90
23114;DHT22;11726;50.122;8.832;2024-03-22T11:05:30;16.00;99.90
23114;DHT22;11726;50.122;8.832;2024-03-22T11:08:05;16.20;99.90
23114;DHT22;11726;50.122;8.832;2024-03-22T11:10:34;16.00;99.90
23114;DHT22;11726;50.122;8.832;2024-03-22T11:13:04;16.10;99.90
23114;DHT22;11726;50.122;8.832;2024-03-22T11:15:30;16.20;99.90
23114;DHT22;11726;50.122;8.832;2024-03-22T11:18:00;16.40;99.90
23114;DHT22;11726;50.122;8.832;2024-03-22T11:20:26;16.60;99.90
23114;DHT22;11726;50.122;8.832;2024-03-22T11:22:53;17.00;99.90
23114;DHT22;11726;50.122;8.832;2024-03-22T11:25:19;16.90;99.90
23114;DHT22;11726;50.122;8.832;2024-03-22T11:27:46;16.70;99.90
23114;DHT22;11726;50.122;8.832;2024-03-22T11:30:12;16.90;99.90
23114;DHT22;11726;50.122;8.832;2024-03-22T11:32:39;16.70;99.90
23114;DHT22;11726;50.122;8.832;2024-03-22T11:35:13;16.70;99.90
23114;DHT22;11726;50.122;8.832;2024-03-22T11:37:40;16.80;99.90
23114;DHT22;11726;50.122;8.832;2024-03-22T11:40:09;16.80;99.90
23114;DHT22;11726;50.122;8.832;2024-03-22T11:42:44;16.80;99.90
23114;DHT22;11726;50.122;8.832;2024-03-22T11:45:12;16.70;99.90
23114;DHT22;11726;50.122;8.832;2024-03-22T11:47:39;16.70;99.90
23114;DHT22;11726;50.122;8.832;2024-03-22T11:50:05;16.70;99.90
23114;DHT22;11726;50.122;8.832;2024-03-22T11:52:31;16.60;99.90
23114;DHT22;11726;50.122;8.832;2024-03-22T11:54:57;16.70;99.90
23114;DHT22;11726;50.122;8.832;2024-03-22T11:57:23;16.70;99.90
23114;DHT22;11726;50.122;8.832;2024-03-22T11:59:50;16.70;99.90
23114;DHT22;11726;50.122;8.832;2024-03-22T12:02:17;16.80;99.90
23114;DHT22;11726;50.122;8.832;2024-03-22T12:04:46;16.70;99.90
23114;DHT22;11726;50.122;8.832;2024-03-22T12:07:16;16.70;99.90
23114;DHT22;11726;50.122;8.832;2024-03-22T12:09:43;16.80;99.90
23114;DHT22;11726;50.122;8.832;2024-03-22T12:12:11;16.80;99.90
23114;DHT22;11726;50.122;8.832;2024-03-22T12:14:37;17.00;99.90
23114;DHT22;11726;50.122;8.832;2024-03-22T12:17:04;17.00;99.90
23114;DHT22;11726;50.122;8.832;2024-03-22T12:19:30;17.10;99.90
23114;DHT22;11726;50.122;8.832;2024-03-22T12:21:56;17.00;99.90
23114;DHT22;11726;50.122;8.832;2024-03-22T12:24:26;17.10;99.90
23114;DHT22;11726;50.122;8.832;2024-03-22T12:26:53;17.30;99.90
23114;DHT22;11726;50.122;8.832;2024-03-22T12:29:19;17.30;99.90
23114;DHT22;11726;50.122;8.832;2024-03-22T12:31:46;17.50;99.90
23114;DHT22;11726;50.122;8.832;2024-03-22T12:34:12;17.50;99.90
23114;DHT22;11726;50.122;8.832;2024-03-22T12:36:38;17.60;99.90
23114;DHT22;11726;50.122;8.832;2024-03-22T12:39:04;17.70;99.90
23114;DHT22;11726;50.122;8.832;2024-03-22T12:41:30;17.60;99.90
23114;DHT22;11726;50.122;8.832;2024-03-22T12:43:57;17.50;99.90
23114;DHT22;11726;50.122;8.832;2024-03-22T12:46:23;17.40;99.90
23114;DHT22;11726;50.122;8.832;2024-03-22T12:48:49;17.40;99.90
23114;DHT22;11726;50.122;8.832;2024-03-22T12:51:16;17.40;99.90
23114;DHT22;11726;50.122;8.832;2024-03-22T12:53:41;17.40;99.90
23114;DHT22;11726;50.122;8.832;2024-03-22T12:56:07;17.50;99.90
23114;DHT22;11726;50.122;8.832;2024-03-22T12:58:34;17.60;99.90
23114;DHT22;11726;50.122;8.832;2024-03-22T13:01:00;17.50;99.90
23114;DHT22;11726;50.122;8.832;2024-03-22T13:03:27;17.50;99.90
23114;DHT22;11726;50.122;8.832;2024-03-22T13:05:53;17.40;99.90
23114;DHT22;11726;50.122;8.832;2024-03-22T13:08:19;17.30;99.90
23114;DHT22;11726;50.122;8.832;2024-03-22T13:10:46;17.20;99.90
23114;DHT22;11726;50.122;8.832;2024-03-22T13:13:12;17.30;99.90
23114;DHT22;11726;50.122;8.832;2024-03-22T13:15:41;17.20;99.90
23114;DHT22;11726;50.122;8.832;2024-03-22T13:18:07;17.30;99.90
23114;DHT22;11726;50.122;8.832;2024-03-22T13:20:37;17.40;99.90
23114;DHT22;11726;50.122;8.832;2024-03-22T13:23:04;17.40;99.90
23114;DHT22;11726;50.122;8.832;2024-03-22T13:25:30;17.50;99.90
23114;DHT22;11726;50.122;8.832;2024-03-22T13:27:57;17.50;99.90
23114;DHT22;11726;50.122;8.832;2024-03-22T13:30:22;17.70;99.90
23114;DHT22;11726;50.122;8.832;2024-03-22T13:32:48;17.70;99.90
23114;DHT22;11726;50.122;8.832;2024-03-22T13:35:14;17.90;99.90
23114;DHT22;11726;50.122;8.832;2024-03-22T13:37:41;17.90;99.90
23114;DHT22;11726;50.122;8.832;2024-03-22T13:40:07;17.90;99.90
23114;DHT22;11726;50.122;8.832;2024-03-22T13:42:33;17.70;99.90
23114;DHT22;11726;50.122;8.832;2024-03-22T13:44:59;17.60;99.90
23114;DHT22;11726;50.122;8.832;2024-03-22T13:47:26;17.60;99.90
23114;DHT22;11726;50.122;8.832;2024-03-22T13:49:53;17.60;99.90
23114;DHT22;11726;50.122;8.832;2024-03-22T13:52:20;17.60;99.90
23114;DHT22;11726;50.122;8.832;2024-03-22T13:54:48;17.60;99.90
23114;DHT22;11726;50.122;8.832;2024-03-22T13:57:15;17.50;99.90
23114;DHT22;11726;50.122;8.832;2024-03-22T13:59:41;17.50;99.90
23114;DHT22;11726;50.122;8.832;2024-03-22T14:02:07;17.50;99.90
23114;DHT22;11726;50.122;8.832;2024-03-22T14:04:35;17.40;99.90
23114;DHT22;11726;50.122;8.832;2024-03-22T14:07:02;17.40;99.90
23114;DHT22;11726;50.122;8.832;2024-03-22T14:09:34;17.30;99.90
23114;DHT22;11726;50.122;8.832;2024-03-22T14:11:59;17.20;99.90
23114;DHT22;11726;50.122;8.832;2024-03-22T14:14:26;17.20;99.90
23114;DHT22;11726;50.122;8.832;2024-03-22T14:16:52;17.20;99.90
23114;DHT22;11726;50.122;8.832;2024-03-22T14:19:18;17.20;99.90
23114;DHT22;11726;50.122;8.832;2024-03-22T14:21:45;17.10;99.90
23114;DHT22;11726;50.122;8.832;2024-03-22T14:24:12;17.10;99.90
23114;DHT22;11726;50.122;8.832;2024-03-22T14:26:37;17.00;99.90
23114;DHT22;11726;50.122;8.832;2024-03-22T14:29:11;17.00;99.90
23114;DHT22;11726;50.122;8.832;2024-03-22T14:31:37;16.90;99.90
23114;DHT22;11726;50.122;8.832;2024-03-22T14:34:05;16.90;99.90
23114;DHT22;11726;50.122;8.832;2024-03-22T14:36:31;16.80;99.90
23114;DHT22;11726;50.122;8.832;2024-03-22T14:38:58;16.90;99.90
23114;DHT22;11726;50.122;8.832;2024-03-22T14:41:24;16.90;99.90
23114;DHT22;11726;50.122;8.832;2024-03-22T14:43:50;16.90;99.90
23114;DHT22;11726;50.122;8.832;2024-03-22T14:46:20;16.80;99.90
23114;DHT22;11726;50.122;8.832;2024-03-22T14:48:50;16.90;99.90
23114;DHT22;11726;50.122;8.832;2024-03-22T14:51:16;16.80;99.90
23114;DHT22;11726;50.122;8.832;2024-03-22T14:53:42;16.80;99.90
23114;DHT22;11726;50.122;8.832;2024-03-22T14:56:08;16.80;99.90
23114;DHT22;11726;50.122;8.832;2024-03-22T14:58:37;16.80;99.90
23114;DHT22;11726;50.122;8.832;2024-03-22T15:01:04;16.70;99.90
23114;DHT22;11726;50.122;8.832;2024-03-22T15:03:30;16.80;99.90
23114;DHT22;11726;50.122;8.832;2024-03-22T15:05:57;16.70;99.90
23114;DHT22;11726;50.122;8.832;2024-03-22T15:08:25;16.80;99.90
23114;DHT22;11726;50.122;8.832;2024-03-22T15:10:51;16.70;99.90
23114;DHT22;11726;50.122;8.832;2024-03-22T15:13:18;16.70;99.90
23114;DHT22;11726;50.122;8.832;2024-03-22T15:15:52;16.80;99.90
23114;DHT22;11726;50.122;8.832;2024-03-22T15:18:19;16.80;99.90
23114;DHT22;11726;50.122;8.832;2024-03-22T15:20:46;16.90;99.90
23114;DHT22;11726;50.122;8.832;2024-03-22T15:23:15;16.90;99.90
23114;DHT22;11726;50.122;8.832;2024-03-22T15:25:42;17.00;99.90
23114;DHT22;11726;50.122;8.832;2024-03-22T15:28:09;16.90;99.90
23114;DHT22;11726;50.122;8.832;2024-03-22T15:30:34;17.00;99.90
23114;DHT22;11726;50.122;8.832;2024-03-22T15:33:01;17.00;99.90
23114;DHT22;11726;50.122;8.832;2024-03-22T15:35:29;17.00;99.90